Island Park, ID (83433)

1:51 AM MDT on September 04, 2015 (GMT -0600)
MesoWest | | Change Station
CLOSE
Current Station
Personal Weather Station
Location: Island Park, ID
Elevation: 7709 ft
Nearby Weather Stations

Elev 7709 ft 44.53 °N, 111.41 °W | Updated 1 day ago

Rain
Rain
41 °F
Feels Like 41 °F
N
2
Wind Variable Wind from SE
Gusts mph

Today
High -- | Low -- °F
--% Chance of Precip.
Yesterday
High -- | Low -- °F
Precip. -- in
6:51 AM 7:56 PM
Waning Gibbous, 62% visible
Pressure 29.98 in
Visibility 10.0 miles
Clouds Few 5500 ft
Scattered Clouds 8000 ft
Dew Point 41 °F
Humidity 100%
Rainfall in
Snow Depth Not available.
UV 0 out of 12
Pollen 7.40 out of 12
Air Quality Not available.
Flu Activity Not available.
METAR KWYS 040725Z AUTO 25003KT 10SM FEW055 SCT080 07/07 A2998 RMK AO2
Pressure 29.98 in
Visibility 10.0 miles
Clouds Few 5500 ft
Scattered Clouds 8000 ft
Dew Point 41 °F
Humidity 100%
Rainfall in
Snow Depth Not available.
UV 0 out of 12
Pollen 7.40 out of 12
Air Quality Not available.
Flu Activity Not available.
METAR KWYS 040725Z AUTO 25003KT 10SM FEW055 SCT080 07/07 A2998 RMK AO2

10-Day Weather Forecast

×

Almanac

Astronomy

Sep. 04, 2015 Rise Set
Actual Time
Civil Twilight
Nautical Twilight
Astronomical Twilight
Moon
Length of Visible Light
Length of Day
Tomorrow will be .
, % of the Moon is Illuminated

Today's Extremes

State Highs State Lows

Community

WunderPhotos

Upload Photos

1,852,132 photos uploaded!

WunderBlogs® & News

Nearby

Air Quality

  Air Quality AQ Index Pollutant
Not available.

Snow Depth

Station Depth Elevation

Earthquake Activity

City Distance Mag. Time & Date
Minimum magnitude displayed is 2.5.

Coastal Water Temperatures

Place Temperature

Stations

Nearby Weather Stations

Station Location Temp. Windchill Dew Point Humidity Wind Precip. Elev Updated Type